createdAt,value
2019-03-03T00:00:43.501Z,47.57
2019-03-03T00:01:45.721Z,47.60
2019-03-03T00:02:47.927Z,47.58
2019-03-03T00:03:50.153Z,47.63
2019-03-03T00:04:52.389Z,47.60
2019-03-03T00:05:54.596Z,47.64
2019-03-03T00:06:56.810Z,47.65
2019-03-03T00:07:59.011Z,47.65
2019-03-03T00:09:01.457Z,47.64
2019-03-03T00:10:03.686Z,47.65
2019-03-03T00:11:06.104Z,47.65
2019-03-03T00:12:08.321Z,47.63
2019-03-03T00:13:10.518Z,47.62
2019-03-03T00:14:12.735Z,47.65
2019-03-03T00:15:14.969Z,47.64
2019-03-03T00:16:17.286Z,47.62
2019-03-03T00:17:19.636Z,47.62
2019-03-03T00:18:21.854Z,47.60
2019-03-03T00:19:24.076Z,47.62
2019-03-03T00:20:26.309Z,47.61
2019-03-03T00:21:28.623Z,47.59
2019-03-03T00:22:30.851Z,47.59
2019-03-03T00:23:33.030Z,47.59
2019-03-03T00:24:35.275Z,47.60
2019-03-03T00:25:37.503Z,47.61
2019-03-03T00:26:39.717Z,47.61
2019-03-03T00:27:41.994Z,47.62
2019-03-03T00:28:44.217Z,47.61
2019-03-03T00:29:46.416Z,47.66
2019-03-03T00:30:48.637Z,47.66
2019-03-03T00:31:50.883Z,47.67
2019-03-03T00:32:53.293Z,47.64
2019-03-03T00:33:55.503Z,47.64
2019-03-03T00:34:57.758Z,47.65
2019-03-03T00:35:59.953Z,47.62
2019-03-03T00:37:12.268Z,47.63
2019-03-03T00:38:28.221Z,47.65
2019-03-03T00:40:07.588Z,47.65
2019-03-03T00:41:27.514Z,47.64
2019-03-03T00:42:57.496Z,47.67
2019-03-03T00:44:09.120Z,47.66
2019-03-03T00:45:29.517Z,47.66
2019-03-03T00:46:50.661Z,47.68
2019-03-03T00:48:26.834Z,47.67
2019-03-03T00:49:38.926Z,47.69
2019-03-03T00:50:57.307Z,47.68
2019-03-03T00:52:24.490Z,47.68
2019-03-03T00:54:04.098Z,47.71
2019-03-03T00:55:15.523Z,47.73
2019-03-03T00:56:45.532Z,47.71
2019-03-03T00:58:06.679Z,47.72
2019-03-03T00:59:17.906Z,47.74
2019-03-03T01:00:39.055Z,47.74
2019-03-03T01:01:49.390Z,47.78
2019-03-03T01:03:05.398Z,47.76
2019-03-03T01:04:29.358Z,47.76
2019-03-03T01:05:53.508Z,47.75
2019-03-03T01:07:26.591Z,47.79
2019-03-03T01:08:46.160Z,47.79
2019-03-03T01:09:52.514Z,47.83
2019-03-03T01:11:32.123Z,47.83
2019-03-03T01:12:47.293Z,47.82
2019-03-03T01:14:03.866Z,47.83
2019-03-03T01:15:26.829Z,47.84
2019-03-03T01:16:54.128Z,47.90
2019-03-03T01:18:05.539Z,47.88
2019-03-03T01:19:29.904Z,47.89
2019-03-03T01:20:50.483Z,47.86
2019-03-03T01:22:14.386Z,47.89
2019-03-03T01:23:42.040Z,47.93
2019-03-03T01:25:03.192Z,47.91
2019-03-03T01:26:05.394Z,47.87
2019-03-03T01:27:07.587Z,47.97
2019-03-03T01:28:09.823Z,47.96
2019-03-03T01:29:12.055Z,47.94
2019-03-03T01:30:14.254Z,47.93
2019-03-03T01:31:16.464Z,47.95
2019-03-03T01:32:18.676Z,47.95
2019-03-03T01:33:20.911Z,47.96
2019-03-03T01:34:23.124Z,47.98
2019-03-03T01:35:25.324Z,48.02
2019-03-03T01:36:27.536Z,47.99
2019-03-03T01:37:29.849Z,47.96
2019-03-03T01:38:32.222Z,48.05
2019-03-03T01:39:34.437Z,48.05
2019-03-03T01:40:36.643Z,47.99
2019-03-03T01:41:38.854Z,47.99
2019-03-03T01:42:41.040Z,48.00
2019-03-03T01:43:43.252Z,48.04
2019-03-03T01:44:45.457Z,48.02
2019-03-03T01:45:47.671Z,48.05
2019-03-03T01:46:49.874Z,48.05
2019-03-03T01:47:52.062Z,48.06
2019-03-03T01:48:54.295Z,48.03
2019-03-03T01:49:56.507Z,48.06
2019-03-03T01:50:58.701Z,48.06
2019-03-03T01:52:00.912Z,48.06
2019-03-03T01:53:03.152Z,48.08
2019-03-03T01:54:05.339Z,48.06
2019-03-03T01:55:07.543Z,48.07
2019-03-03T01:56:09.774Z,48.04
2019-03-03T01:57:11.970Z,48.06
2019-03-03T01:58:14.204Z,48.06
2019-03-03T01:59:16.424Z,48.09
2019-03-03T02:00:19.928Z,48.09
2019-03-03T02:01:22.170Z,48.13
2019-03-03T02:02:24.453Z,48.08
2019-03-03T02:03:27.174Z,48.10
2019-03-03T02:04:29.412Z,48.11
2019-03-03T02:05:31.608Z,48.12
2019-03-03T02:06:33.804Z,48.12
2019-03-03T02:07:36.006Z,48.13
2019-03-03T02:08:38.218Z,48.17
2019-03-03T02:09:40.435Z,48.17
2019-03-03T02:10:42.639Z,48.12
2019-03-03T02:11:44.834Z,48.15
2019-03-03T02:12:47.035Z,48.10
2019-03-03T02:13:49.249Z,48.17
2019-03-03T02:14:51.453Z,48.19
2019-03-03T02:15:53.642Z,48.19
2019-03-03T02:16:55.859Z,48.22
2019-03-03T02:17:58.058Z,48.17
2019-03-03T02:19:00.293Z,48.17
2019-03-03T02:20:02.506Z,48.20
2019-03-03T02:21:04.707Z,48.15
2019-03-03T02:22:06.909Z,48.16
2019-03-03T02:23:09.118Z,48.22
2019-03-03T02:24:11.343Z,48.21
2019-03-03T02:25:13.552Z,48.19
2019-03-03T02:26:15.740Z,48.22
2019-03-03T02:27:17.946Z,48.21
2019-03-03T02:28:20.152Z,48.23
2019-03-03T02:29:22.374Z,48.21
2019-03-03T02:30:24.591Z,48.22
2019-03-03T02:31:26.784Z,48.23
2019-03-03T02:32:28.977Z,48.25
2019-03-03T02:33:31.208Z,48.23
2019-03-03T02:34:33.395Z,48.26
2019-03-03T02:35:35.601Z,48.27
2019-03-03T02:36:37.814Z,48.24
2019-03-03T02:37:40.023Z,48.25
2019-03-03T02:38:42.264Z,48.26
2019-03-03T02:39:44.462Z,48.28
2019-03-03T02:40:49.023Z,48.28
2019-03-03T02:41:51.232Z,48.27
2019-03-03T02:42:53.446Z,48.29
2019-03-03T02:43:55.685Z,48.29
2019-03-03T02:44:57.886Z,48.28
2019-03-03T02:46:00.127Z,48.23
2019-03-03T02:47:02.343Z,48.32
2019-03-03T02:48:04.547Z,48.32
2019-03-03T02:49:06.795Z,48.31
2019-03-03T02:50:08.998Z,48.32
2019-03-03T02:51:11.215Z,48.32
2019-03-03T02:52:13.482Z,48.28
2019-03-03T02:53:15.617Z,48.33
2019-03-03T02:54:17.844Z,48.33
2019-03-03T02:55:20.059Z,48.30
2019-03-03T02:56:22.254Z,48.37
2019-03-03T02:57:24.449Z,48.35
2019-03-03T02:58:26.658Z,48.33
2019-03-03T02:59:28.879Z,48.34
2019-03-03T03:00:31.078Z,48.38
2019-03-03T03:01:37.694Z,48.36
2019-03-03T03:02:48.128Z,48.36
2019-03-03T03:03:50.340Z,48.36
2019-03-03T03:04:52.657Z,48.35
2019-03-03T03:06:02.265Z,48.40
2019-03-03T03:07:26.429Z,48.38
2019-03-03T03:08:33.435Z,48.37
2019-03-03T03:10:03.539Z,48.38
2019-03-03T03:11:30.563Z,48.36
2019-03-03T03:12:51.728Z,48.38
2019-03-03T03:14:02.548Z,48.36
2019-03-03T03:15:14.639Z,48.38
2019-03-03T03:16:22.821Z,48.40
2019-03-03T03:17:34.806Z,48.41
2019-03-03T03:18:58.833Z,48.42
2019-03-03T03:20:22.792Z,48.41
2019-03-03T03:21:49.785Z,48.41
2019-03-03T03:23:01.363Z,48.42
2019-03-03T03:24:28.840Z,48.41
2019-03-03T03:26:08.670Z,48.42
2019-03-03T03:27:39.700Z,48.43
2019-03-03T03:28:59.513Z,48.42
2019-03-03T03:30:16.466Z,48.41
2019-03-03T03:31:40.740Z,48.44
2019-03-03T03:33:04.905Z,48.39
2019-03-03T03:34:26.956Z,48.46
2019-03-03T03:36:00.369Z,48.46
2019-03-03T03:37:24.375Z,48.48
2019-03-03T03:38:34.230Z,48.43
2019-03-03T03:39:53.496Z,48.44
2019-03-03T03:41:20.686Z,48.50
2019-03-03T03:42:40.456Z,48.46
2019-03-03T03:44:04.690Z,48.45
2019-03-03T03:45:22.937Z,48.47
2019-03-03T03:46:36.746Z,48.49
2019-03-03T03:47:56.699Z,48.51
2019-03-03T03:49:23.915Z,48.49
2019-03-03T03:50:45.057Z,48.51
2019-03-03T03:52:07.092Z,48.53
2019-03-03T03:53:15.191Z,48.53
2019-03-03T03:54:42.659Z,48.53
2019-03-03T03:56:03.813Z,48.53
2019-03-03T03:57:21.670Z,48.51
2019-03-03T03:58:28.914Z,48.49
2019-03-03T03:59:48.837Z,48.55
2019-03-03T04:01:02.841Z,48.55
2019-03-03T04:02:23.971Z,48.54
2019-03-03T04:03:38.939Z,48.56
2019-03-03T04:05:00.228Z,48.53
2019-03-03T04:06:11.700Z,48.55
2019-03-03T04:07:35.578Z,48.53
2019-03-03T04:09:01.930Z,48.55
2019-03-03T04:10:22.606Z,48.59
2019-03-03T04:11:42.457Z,48.56
2019-03-03T04:13:18.964Z,48.58
2019-03-03T04:14:40.137Z,48.55
2019-03-03T04:15:50.460Z,48.60
2019-03-03T04:17:14.409Z,48.61
2019-03-03T04:18:28.986Z,48.62
2019-03-03T04:19:37.412Z,48.61
2019-03-03T04:20:59.407Z,48.61
2019-03-03T04:22:29.667Z,48.61
2019-03-03T04:23:42.628Z,48.61
2019-03-03T04:24:59.048Z,48.63
2019-03-03T04:26:35.350Z,48.63
2019-03-03T04:28:00.141Z,48.64
2019-03-03T04:29:16.146Z,48.63
2019-03-03T04:30:26.960Z,48.64
2019-03-03T04:31:35.315Z,48.67
2019-03-03T04:32:59.552Z,48.62
2019-03-03T04:34:09.111Z,48.66
2019-03-03T04:35:22.255Z,48.67
2019-03-03T04:36:32.675Z,48.70
2019-03-03T04:37:59.929Z,48.71
2019-03-03T04:39:39.514Z,48.66
2019-03-03T04:40:58.010Z,48.70
2019-03-03T04:42:25.056Z,48.70
2019-03-03T04:43:36.217Z,48.71
2019-03-03T04:45:00.309Z,48.71
2019-03-03T04:46:08.924Z,48.74
2019-03-03T04:47:19.148Z,48.71
2019-03-03T04:48:38.794Z,48.73
2019-03-03T04:49:56.235Z,48.69
2019-03-03T04:51:23.496Z,48.69
2019-03-03T04:52:46.404Z,48.74
2019-03-03T04:54:02.599Z,48.73
2019-03-03T04:55:26.561Z,48.73
2019-03-03T04:56:50.598Z,48.72
2019-03-03T04:58:08.554Z,48.72
2019-03-03T04:59:29.708Z,48.72
2019-03-03T05:01:04.023Z,48.75
2019-03-03T05:02:30.903Z,48.72
2019-03-03T05:03:52.049Z,48.75
2019-03-03T05:05:12.315Z,48.76
2019-03-03T05:06:25.817Z,48.73
2019-03-03T05:07:38.892Z,48.73
2019-03-03T05:09:05.884Z,48.72
2019-03-03T05:10:18.180Z,48.76
2019-03-03T05:11:31.083Z,48.72
2019-03-03T05:12:54.983Z,48.77
2019-03-03T05:14:19.166Z,48.76
2019-03-03T05:15:38.990Z,48.79
2019-03-03T05:16:50.254Z,48.79
2019-03-03T05:17:57.843Z,48.81
2019-03-03T05:19:03.496Z,48.80
2019-03-03T05:20:06.153Z,48.80
2019-03-03T05:21:08.361Z,48.83
2019-03-03T05:22:10.546Z,48.80
2019-03-03T05:23:12.797Z,48.82
2019-03-03T05:24:14.982Z,48.82
2019-03-03T05:25:17.196Z,48.84
2019-03-03T05:26:22.149Z,48.84
2019-03-03T05:27:24.511Z,48.84
2019-03-03T05:28:26.749Z,48.82
2019-03-03T05:29:28.935Z,48.84
2019-03-03T05:30:31.177Z,48.87
2019-03-03T05:31:33.382Z,48.86
2019-03-03T05:32:35.582Z,48.85
2019-03-03T05:33:37.819Z,48.85
2019-03-03T05:34:40.039Z,48.84
2019-03-03T05:35:42.257Z,48.87
2019-03-03T05:36:44.449Z,48.90
2019-03-03T05:37:46.665Z,48.87
2019-03-03T05:38:48.897Z,48.91
2019-03-03T05:39:51.167Z,48.87
2019-03-03T05:40:53.371Z,48.86
2019-03-03T05:41:55.571Z,48.88
2019-03-03T05:42:57.787Z,48.90
2019-03-03T05:44:00.031Z,48.89
2019-03-03T05:45:02.235Z,48.93
2019-03-03T05:46:04.434Z,48.94
2019-03-03T05:47:06.649Z,48.94
2019-03-03T05:48:08.861Z,48.95
2019-03-03T05:49:11.083Z,48.97
2019-03-03T05:50:13.278Z,48.97
2019-03-03T05:51:15.484Z,48.95
2019-03-03T05:52:17.714Z,48.97
2019-03-03T05:53:19.898Z,48.91
2019-03-03T05:54:22.121Z,48.95
2019-03-03T05:55:25.399Z,48.95
2019-03-03T05:56:27.541Z,48.96
2019-03-03T05:57:29.745Z,48.98
2019-03-03T05:58:31.957Z,49.02
2019-03-03T05:59:34.179Z,49.12
2019-03-03T06:00:36.398Z,49.17
2019-03-03T06:01:38.613Z,49.20
2019-03-03T06:02:40.855Z,49.19
2019-03-03T06:03:43.177Z,49.24
2019-03-03T06:04:45.407Z,49.19
2019-03-03T06:05:47.603Z,49.17
2019-03-03T06:06:51.567Z,49.15
2019-03-03T06:07:53.791Z,49.13
2019-03-03T06:08:55.983Z,49.14
2019-03-03T06:09:58.199Z,49.10
2019-03-03T06:11:00.406Z,49.13
2019-03-03T06:12:02.743Z,49.08
2019-03-03T06:13:04.936Z,49.02
2019-03-03T06:14:07.195Z,49.06
2019-03-03T06:15:09.394Z,49.05
2019-03-03T06:16:11.588Z,49.07
2019-03-03T06:17:13.787Z,49.07
2019-03-03T06:18:16.097Z,49.10
2019-03-03T06:19:18.366Z,49.00
2019-03-03T06:20:20.726Z,49.10
2019-03-03T06:21:22.921Z,49.15
2019-03-03T06:22:25.127Z,49.07
2019-03-03T06:23:27.349Z,49.11
2019-03-03T06:24:29.565Z,49.08
2019-03-03T06:25:31.761Z,49.10
2019-03-03T06:26:33.957Z,49.08
2019-03-03T06:27:36.171Z,49.07
2019-03-03T06:28:38.665Z,49.05
2019-03-03T06:29:40.856Z,49.06
2019-03-03T06:30:43.094Z,49.09
2019-03-03T06:31:45.289Z,49.11
2019-03-03T06:32:47.487Z,49.11
2019-03-03T06:33:49.698Z,49.13
2019-03-03T06:34:53.895Z,49.11
2019-03-03T06:35:55.804Z,49.11
2019-03-03T06:36:58.005Z,49.14
2019-03-03T06:38:00.211Z,49.16
2019-03-03T06:39:02.432Z,49.14
2019-03-03T06:40:04.649Z,49.18
2019-03-03T06:41:06.869Z,49.15
2019-03-03T06:42:09.073Z,49.15
2019-03-03T06:43:11.284Z,49.16
2019-03-03T06:44:13.603Z,49.21
2019-03-03T06:45:15.813Z,49.19
2019-03-03T06:46:19.662Z,49.16
2019-03-03T06:47:21.870Z,49.16
2019-03-03T06:48:24.064Z,49.21
2019-03-03T06:49:26.256Z,49.18
2019-03-03T06:50:28.462Z,49.17
2019-03-03T06:51:30.702Z,49.22
2019-03-03T06:52:32.927Z,49.21
2019-03-03T06:53:35.134Z,49.18
2019-03-03T06:54:37.331Z,49.15
2019-03-03T06:55:39.533Z,49.20
2019-03-03T06:56:41.860Z,49.18
2019-03-03T06:57:44.075Z,49.18
2019-03-03T06:58:46.276Z,49.21
2019-03-03T06:59:48.647Z,49.22
2019-03-03T07:00:50.857Z,49.22
2019-03-03T07:01:53.070Z,49.25
2019-03-03T07:02:55.410Z,49.24
2019-03-03T07:03:57.602Z,49.23
2019-03-03T07:04:59.875Z,49.23
2019-03-03T07:06:02.076Z,49.24
2019-03-03T07:07:07.048Z,49.22
2019-03-03T07:08:09.272Z,49.22
2019-03-03T07:09:11.931Z,49.24
2019-03-03T07:10:14.046Z,49.25
2019-03-03T07:11:16.264Z,49.26
2019-03-03T07:12:18.638Z,49.25
2019-03-03T07:13:20.821Z,49.29
2019-03-03T07:14:23.125Z,49.26
2019-03-03T07:15:25.339Z,49.27
2019-03-03T07:16:27.555Z,49.28
2019-03-03T07:17:29.754Z,49.26
2019-03-03T07:18:31.959Z,49.28
2019-03-03T07:19:34.178Z,49.30
2019-03-03T07:20:36.390Z,49.25
2019-03-03T07:21:38.595Z,49.27
2019-03-03T07:22:40.830Z,49.29
2019-03-03T07:23:44.078Z,49.30
2019-03-03T07:24:46.242Z,49.27
2019-03-03T07:25:48.457Z,49.30
2019-03-03T07:26:50.674Z,49.32
2019-03-03T07:27:52.948Z,49.30
2019-03-03T07:28:55.148Z,49.33
2019-03-03T07:29:57.541Z,49.31
2019-03-03T07:30:59.756Z,49.31
2019-03-03T07:32:01.978Z,49.35
2019-03-03T07:33:25.397Z,49.32
2019-03-03T07:34:30.103Z,49.35
2019-03-03T07:35:32.314Z,49.34
2019-03-03T07:36:34.521Z,49.32
2019-03-03T07:37:36.727Z,49.33
2019-03-03T07:38:38.949Z,49.36
2019-03-03T07:39:41.156Z,49.36
2019-03-03T07:40:43.350Z,49.34
2019-03-03T07:41:45.547Z,49.34
2019-03-03T07:42:47.757Z,49.34
2019-03-03T07:43:50.004Z,49.35
2019-03-03T07:44:52.205Z,49.34
2019-03-03T07:45:54.407Z,49.32
2019-03-03T07:46:56.773Z,49.31
2019-03-03T07:47:58.979Z,49.32
2019-03-03T07:49:01.252Z,49.32
2019-03-03T07:50:03.466Z,49.35
2019-03-03T07:51:05.660Z,49.30
2019-03-03T07:52:07.876Z,49.31
2019-03-03T07:53:10.079Z,49.30
2019-03-03T07:54:12.385Z,49.31
2019-03-03T07:55:14.555Z,49.34
2019-03-03T07:56:16.766Z,49.30
2019-03-03T07:57:19.306Z,49.31
2019-03-03T07:58:21.506Z,49.33
2019-03-03T07:59:23.747Z,49.26
2019-03-03T08:00:25.954Z,49.33
2019-03-03T08:01:28.155Z,49.32
2019-03-03T08:02:30.367Z,49.25
2019-03-03T08:03:32.580Z,49.29
2019-03-03T08:04:34.818Z,49.35
2019-03-03T08:05:37.026Z,49.33
2019-03-03T08:06:39.232Z,49.32
2019-03-03T08:07:41.422Z,49.31
2019-03-03T08:08:43.628Z,49.32
2019-03-03T08:09:45.877Z,49.32
2019-03-03T08:10:48.087Z,49.33
2019-03-03T08:11:50.307Z,49.35
2019-03-03T08:12:52.524Z,49.36
2019-03-03T08:13:54.722Z,49.31
2019-03-03T08:14:57.168Z,49.33
2019-03-03T08:15:59.391Z,49.28
2019-03-03T08:17:01.589Z,49.34
2019-03-03T08:18:03.793Z,49.29
2019-03-03T08:19:05.988Z,49.25
2019-03-03T08:20:08.332Z,49.34
2019-03-03T08:21:10.533Z,49.34
2019-03-03T08:22:12.736Z,49.33
2019-03-03T08:23:14.946Z,49.36
2019-03-03T08:24:17.167Z,49.32
2019-03-03T08:25:19.427Z,49.30
2019-03-03T08:26:21.622Z,49.31
2019-03-03T08:27:23.828Z,49.31
2019-03-03T08:28:26.033Z,49.18
2019-03-03T08:29:28.246Z,49.30
2019-03-03T08:30:31.105Z,49.26
2019-03-03T08:31:33.302Z,49.09
2019-03-03T08:32:35.515Z,49.25
2019-03-03T08:33:37.742Z,49.20
2019-03-03T08:34:39.936Z,49.17
2019-03-03T08:35:42.178Z,49.19
2019-03-03T08:36:44.388Z,49.27
2019-03-03T08:37:46.602Z,49.28
2019-03-03T08:38:48.800Z,49.34
2019-03-03T08:39:51.016Z,49.30
2019-03-03T08:40:53.327Z,49.26
2019-03-03T08:42:01.189Z,49.21
2019-03-03T08:43:24.951Z,49.17
2019-03-03T08:44:40.634Z,49.25
2019-03-03T08:46:11.274Z,49.27
2019-03-03T08:47:33.778Z,49.05
2019-03-03T08:48:58.716Z,49.27
2019-03-03T08:50:07.870Z,49.23
2019-03-03T08:51:29.048Z,49.18
2019-03-03T08:52:52.965Z,49.43
2019-03-03T08:54:13.066Z,52.38
2019-03-03T08:55:52.387Z,51.59
2019-03-03T08:57:19.599Z,51.80
2019-03-03T08:58:27.327Z,50.85
2019-03-03T08:59:41.844Z,50.52
2019-03-03T09:01:11.807Z,50.19
2019-03-03T09:02:35.747Z,50.12
2019-03-03T09:03:56.895Z,49.92
2019-03-03T09:05:24.137Z,49.80
2019-03-03T09:06:35.020Z,49.58
2019-03-03T09:08:08.155Z,49.47
2019-03-03T09:09:34.334Z,49.43
2019-03-03T09:10:46.925Z,49.35
2019-03-03T09:11:57.989Z,49.26
2019-03-03T09:13:25.238Z,49.21
2019-03-03T09:14:52.227Z,49.65
2019-03-03T09:16:19.662Z,49.43
2019-03-03T09:17:39.722Z,49.99
2019-03-03T09:18:52.748Z,52.15
2019-03-03T09:20:19.253Z,53.25
2019-03-03T09:21:43.263Z,53.10
2019-03-03T09:23:03.047Z,52.31
2019-03-03T09:24:23.492Z,51.70
2019-03-03T09:25:46.562Z,51.38
2019-03-03T09:27:06.364Z,51.51
2019-03-03T09:28:36.929Z,51.05
2019-03-03T09:29:56.917Z,50.83
2019-03-03T09:31:11.542Z,50.82
2019-03-03T09:32:26.086Z,52.51
2019-03-03T09:33:45.098Z,55.39
2019-03-03T09:35:12.132Z,56.22
2019-03-03T09:36:36.276Z,57.75
2019-03-03T09:37:56.275Z,55.55
2019-03-03T09:39:17.437Z,54.93
2019-03-03T09:40:37.093Z,53.80
2019-03-03T09:41:55.023Z,53.04
2019-03-03T09:43:11.102Z,52.59
2019-03-03T09:44:30.834Z,52.40
2019-03-03T09:45:50.874Z,51.92
2019-03-03T09:47:21.289Z,52.52
2019-03-03T09:48:48.666Z,52.46
2019-03-03T09:50:10.442Z,52.47
2019-03-03T09:51:30.549Z,52.20
2019-03-03T09:53:06.774Z,52.38
2019-03-03T09:54:27.920Z,52.41
2019-03-03T09:55:52.138Z,52.30
2019-03-03T09:57:13.314Z,52.63
2019-03-03T09:58:22.980Z,52.79
2019-03-03T09:59:59.151Z,52.76
2019-03-03T10:01:13.101Z,52.82
2019-03-03T10:02:37.559Z,52.69
2019-03-03T10:04:13.880Z,52.97
2019-03-03T10:05:35.026Z,52.94
2019-03-03T10:06:46.606Z,53.20
2019-03-03T10:08:07.774Z,53.10
2019-03-03T10:09:27.192Z,53.32
2019-03-03T10:10:46.930Z,53.35
2019-03-03T10:11:55.468Z,52.97
2019-03-03T10:13:07.119Z,53.68
2019-03-03T10:14:34.316Z,54.00
2019-03-03T10:15:54.946Z,54.08
2019-03-03T10:17:18.913Z,53.77
2019-03-03T10:18:34.809Z,53.97
2019-03-03T10:20:08.415Z,54.08
2019-03-03T10:21:28.438Z,54.65
2019-03-03T10:22:49.600Z,54.83
2019-03-03T10:24:09.703Z,54.72
2019-03-03T10:25:34.153Z,54.90
2019-03-03T10:27:07.511Z,55.57
2019-03-03T10:28:15.737Z,54.33
2019-03-03T10:29:28.536Z,57.34
2019-03-03T10:30:48.586Z,58.11
2019-03-03T10:32:15.762Z,57.35
2019-03-03T10:33:45.999Z,56.27
2019-03-03T10:35:13.372Z,55.56
2019-03-03T10:36:46.582Z,54.94
2019-03-03T10:37:58.971Z,54.62
2019-03-03T10:39:08.232Z,54.26
2019-03-03T10:40:38.321Z,54.10
2019-03-03T10:42:05.572Z,54.06
2019-03-03T10:43:26.719Z,53.92
2019-03-03T10:45:02.996Z,53.85
2019-03-03T10:46:24.194Z,53.85
2019-03-03T10:47:39.701Z,53.79
2019-03-03T10:48:55.903Z,53.78
2019-03-03T10:50:29.286Z,53.70
2019-03-03T10:51:56.537Z,53.69
2019-03-03T10:53:05.680Z,53.61
2019-03-03T10:54:20.527Z,53.56
2019-03-03T10:55:44.932Z,53.51
2019-03-03T10:57:14.953Z,53.49
2019-03-03T10:58:25.346Z,53.47
2019-03-03T10:59:54.968Z,53.46
2019-03-03T11:01:18.368Z,53.42
2019-03-03T11:02:57.783Z,53.40
2019-03-03T11:04:25.380Z,53.35
2019-03-03T11:05:45.607Z,53.32
2019-03-03T11:07:15.764Z,53.30
2019-03-03T11:08:29.371Z,53.26
2019-03-03T11:09:38.441Z,53.21
2019-03-03T11:10:58.330Z,53.19
2019-03-03T11:12:25.769Z,53.17
2019-03-03T11:13:50.000Z,53.16
2019-03-03T11:15:01.688Z,53.13
2019-03-03T11:16:26.166Z,53.09
2019-03-03T11:17:47.327Z,52.97
2019-03-03T11:19:11.666Z,52.84
2019-03-03T11:20:38.939Z,52.61
2019-03-03T11:21:59.165Z,52.47
2019-03-03T11:23:26.276Z,52.36
2019-03-03T11:24:47.429Z,52.21
2019-03-03T11:25:59.712Z,52.22
2019-03-03T11:27:16.013Z,52.21
2019-03-03T11:28:46.066Z,52.07
2019-03-03T11:30:10.129Z,51.99
2019-03-03T11:32:57.064Z,51.88
2019-03-03T11:34:12.472Z,51.71
2019-03-03T11:35:37.772Z,51.74
2019-03-03T11:36:44.972Z,51.72
2019-03-03T11:38:06.127Z,51.70
2019-03-03T11:39:39.375Z,51.71
2019-03-03T11:40:55.548Z,51.65
2019-03-03T11:42:05.693Z,51.67
2019-03-03T11:43:25.836Z,51.70
2019-03-03T11:44:49.813Z,51.66
2019-03-03T11:46:13.465Z,51.71
2019-03-03T11:47:46.506Z,51.73
2019-03-03T11:49:06.187Z,51.71
2019-03-03T11:50:30.132Z,51.68
2019-03-03T11:52:00.356Z,51.68
2019-03-03T11:53:24.611Z,51.70
2019-03-03T11:54:33.930Z,51.74
2019-03-03T11:55:54.508Z,51.73
2019-03-03T11:57:07.821Z,51.70
2019-03-03T11:58:30.604Z,51.74
2019-03-03T11:59:51.754Z,51.73
2019-03-03T12:01:22.945Z,51.69
2019-03-03T12:02:56.123Z,51.69
2019-03-03T12:04:26.394Z,51.63
2019-03-03T12:05:56.036Z,51.67
2019-03-03T12:07:09.212Z,51.65
2019-03-03T12:08:39.339Z,51.64
2019-03-03T12:09:58.634Z,51.60
2019-03-03T12:11:17.748Z,51.62
2019-03-03T12:12:45.021Z,51.62
2019-03-03T12:14:04.637Z,51.60
2019-03-03T12:15:11.829Z,51.57
2019-03-03T12:16:41.368Z,51.56
2019-03-03T12:17:52.508Z,51.57
2019-03-03T12:19:06.796Z,51.57
2019-03-03T12:20:43.227Z,51.54
2019-03-03T12:22:04.395Z,51.51
2019-03-03T12:23:40.929Z,51.52
2019-03-03T12:25:02.114Z,51.46
2019-03-03T12:26:41.416Z,51.49
2019-03-03T12:28:01.504Z,51.50
2019-03-03T12:29:21.536Z,51.50
2019-03-03T12:30:32.532Z,51.48
2019-03-03T12:31:52.622Z,51.44
2019-03-03T12:33:14.070Z,51.47
2019-03-03T12:34:35.620Z,51.44
2019-03-03T12:36:05.333Z,51.43
2019-03-03T12:37:26.583Z,51.43
2019-03-03T12:38:46.192Z,51.41
2019-03-03T12:40:13.495Z,51.33
2019-03-03T12:41:33.299Z,51.38
2019-03-03T12:42:54.458Z,51.31
2019-03-03T12:44:07.527Z,51.33
2019-03-03T12:45:27.296Z,51.34
2019-03-03T12:46:39.223Z,51.33
2019-03-03T12:48:06.451Z,51.34
2019-03-03T12:49:30.610Z,51.35
2019-03-03T12:50:54.839Z,51.35
2019-03-03T12:52:23.823Z,51.27
2019-03-03T12:53:44.957Z,51.25
2019-03-03T12:55:14.879Z,51.20
2019-03-03T12:56:34.792Z,51.11
2019-03-03T12:57:45.863Z,51.10
2019-03-03T12:59:06.031Z,51.06
2019-03-03T13:00:30.222Z,51.01
2019-03-03T13:02:03.895Z,50.99
2019-03-03T13:03:31.166Z,50.92
2019-03-03T13:05:04.417Z,50.84
2019-03-03T13:06:30.343Z,50.90
2019-03-03T13:07:47.904Z,50.88
2019-03-03T13:09:11.879Z,50.84
2019-03-03T13:10:40.676Z,50.77
2019-03-03T13:12:00.500Z,50.71
2019-03-03T13:13:21.662Z,50.63
2019-03-03T13:14:45.620Z,50.65
2019-03-03T13:16:12.685Z,50.64
2019-03-03T13:17:47.938Z,50.62
2019-03-03T13:19:01.813Z,50.59
2019-03-03T13:20:21.575Z,50.61
2019-03-03T13:21:45.517Z,50.65
2019-03-03T13:23:12.942Z,50.63
2019-03-03T13:24:34.127Z,50.64
2019-03-03T13:26:07.603Z,50.68
2019-03-03T13:27:21.559Z,50.66
2019-03-03T13:29:00.948Z,50.66
2019-03-03T13:30:25.293Z,50.67
2019-03-03T13:31:49.565Z,50.69
2019-03-03T13:33:19.655Z,50.70
2019-03-03T13:34:43.942Z,50.71
2019-03-03T13:35:54.869Z,50.75
2019-03-03T13:37:16.010Z,50.66
2019-03-03T13:38:35.753Z,50.58
2019-03-03T13:39:52.983Z,50.80
2019-03-03T13:41:08.332Z,50.69
2019-03-03T13:42:20.518Z,50.69
2019-03-03T13:43:22.745Z,50.62
2019-03-03T13:44:25.029Z,50.65
2019-03-03T13:45:27.216Z,50.64
2019-03-03T13:46:29.417Z,50.69
2019-03-03T13:47:31.643Z,50.77
2019-03-03T13:48:33.850Z,50.86
2019-03-03T13:49:36.084Z,50.83
2019-03-03T13:50:38.316Z,50.83
2019-03-03T13:51:40.539Z,50.94
2019-03-03T13:52:42.766Z,50.90
2019-03-03T13:53:45.062Z,50.95
2019-03-03T13:54:47.461Z,50.93
2019-03-03T13:55:49.871Z,51.00
2019-03-03T13:56:52.091Z,51.05
2019-03-03T13:57:54.435Z,51.08
2019-03-03T13:58:56.673Z,51.10
2019-03-03T13:59:58.859Z,51.11
2019-03-03T14:01:01.101Z,51.13
2019-03-03T14:02:03.320Z,51.13
2019-03-03T14:03:05.623Z,51.17
2019-03-03T14:04:07.847Z,51.21
2019-03-03T14:05:10.079Z,51.27
2019-03-03T14:06:14.365Z,51.25
2019-03-03T14:07:16.560Z,51.26
2019-03-03T14:08:18.774Z,51.31
2019-03-03T14:09:20.990Z,51.31
2019-03-03T14:10:23.183Z,51.32
2019-03-03T14:11:25.453Z,51.29
2019-03-03T14:12:27.691Z,51.30
2019-03-03T14:13:29.909Z,51.31
2019-03-03T14:14:32.210Z,51.33
2019-03-03T14:15:34.401Z,51.31
2019-03-03T14:16:36.647Z,51.31
2019-03-03T14:17:38.879Z,51.29
2019-03-03T14:18:41.083Z,51.29
2019-03-03T14:19:43.334Z,51.32
2019-03-03T14:20:45.539Z,51.28
2019-03-03T14:21:47.761Z,51.27
2019-03-03T14:22:49.994Z,51.25
2019-03-03T14:23:54.214Z,51.24
2019-03-03T14:24:56.112Z,51.28
2019-03-03T14:25:58.328Z,51.22
2019-03-03T14:27:10.121Z,51.16
2019-03-03T14:28:04.423Z,51.11
2019-03-03T14:29:09.523Z,51.12
2019-03-03T14:30:11.719Z,51.08
2019-03-03T14:31:13.955Z,51.04
2019-03-03T14:32:16.164Z,51.04
2019-03-03T14:33:18.372Z,51.00
2019-03-03T14:34:20.595Z,50.96
2019-03-03T14:35:22.810Z,50.93
2019-03-03T14:36:25.077Z,50.91
2019-03-03T14:37:27.371Z,50.88
2019-03-03T14:38:29.622Z,50.83
2019-03-03T14:39:31.814Z,50.82
2019-03-03T14:40:34.025Z,50.76
2019-03-03T14:41:36.240Z,50.72
2019-03-03T14:42:38.561Z,50.68
2019-03-03T14:43:41.021Z,50.68
2019-03-03T14:44:45.280Z,50.65
2019-03-03T14:45:47.507Z,50.63
2019-03-03T14:46:50.996Z,50.64
2019-03-03T14:47:53.265Z,50.64
2019-03-03T14:48:55.535Z,50.66
2019-03-03T14:49:57.763Z,50.67
2019-03-03T14:50:59.965Z,50.69
2019-03-03T14:52:02.185Z,50.70
2019-03-03T14:53:04.475Z,50.70
2019-03-03T14:54:06.696Z,50.65
2019-03-03T14:55:08.933Z,50.66
2019-03-03T14:56:11.202Z,50.66
2019-03-03T14:57:13.416Z,50.71
2019-03-03T14:58:15.650Z,50.71
2019-03-03T14:59:17.868Z,50.66
2019-03-03T15:00:20.289Z,50.67
2019-03-03T15:01:22.496Z,50.65
2019-03-03T15:02:24.717Z,50.63
2019-03-03T15:03:28.686Z,50.63
2019-03-03T15:04:33.936Z,50.63
2019-03-03T15:05:36.164Z,50.61
2019-03-03T15:06:38.371Z,50.63
2019-03-03T15:07:40.608Z,50.60
2019-03-03T15:08:44.388Z,50.59
2019-03-03T15:09:46.632Z,50.58
2019-03-03T15:10:48.868Z,50.58
2019-03-03T15:11:52.434Z,50.60
2019-03-03T15:12:54.562Z,50.58
2019-03-03T15:13:56.808Z,50.54
2019-03-03T15:14:59.016Z,50.54
2019-03-03T15:16:04.392Z,50.54
2019-03-03T15:17:06.618Z,50.55
2019-03-03T15:18:08.832Z,50.54